Time;durP1;ratioP1;P1;durP2;ratioP2;P2;SDS_P1;SDS_P2;PMS_P1;PMS_P2;Temp;Humidity;BMP_temperature;BMP_pressure;BME280_temperature;BME280_humidity;BME280_pressure;Samples;Min_cycle;Max_cycle;Signal;HPM_P1;HPM_P2
2022/07/26 00:01:05;;;;;;;;;;;13.50;98.00;;;;;;5092729;28;19996;-72
2022/07/26 00:03:32;;;;;;;;;;;13.50;98.00;;;;;;5092416;28;19924;-72
2022/07/26 00:05:58;;;;;;;;;;;13.50;98.00;;;;;;5092586;28;19943;-71
2022/07/26 00:08:25;;;;;;;;;;;13.50;98.00;;;;;;5091324;28;19958;-71
2022/07/26 00:10:52;;;;;;;;;;;13.60;98.00;;;;;;5092216;28;19998;-71
2022/07/26 00:13:19;;;;;;;;;;;13.60;98.10;;;;;;5091162;28;20338;-72
2022/07/26 00:15:46;;;;;;;;;;;13.70;98.00;;;;;;5092279;28;19913;-71
2022/07/26 00:18:12;;;;;;;;;;;13.70;98.00;;;;;;5092479;28;19924;-71
2022/07/26 00:20:39;;;;;;;;;;;13.70;98.00;;;;;;5092174;28;19912;-71
2022/07/26 00:23:05;;;;;;;;;;;13.70;98.00;;;;;;5090969;28;19909;-72
2022/07/26 00:25:32;;;;;;;;;;;13.80;98.10;;;;;;5091303;28;19966;-72
2022/07/26 00:27:59;;;;;;;;;;;13.80;98.00;;;;;;5090873;28;19991;-72
2022/07/26 00:30:25;;;;;;;;;;;13.80;98.00;;;;;;5090291;28;19915;-72
2022/07/26 00:32:52;;;;;;;;;;;13.90;98.00;;;;;;5090500;28;19985;-72
2022/07/26 00:35:19;;;;;;;;;;;13.90;98.00;;;;;;5090687;28;19909;-72
2022/07/26 00:37:45;;;;;;;;;;;14.00;97.90;;;;;;5092109;28;19912;-72
2022/07/26 00:40:12;;;;;;;;;;;14.00;97.90;;;;;;5090711;28;19913;-72
2022/07/26 00:42:39;;;;;;;;;;;14.10;98.00;;;;;;5092118;28;19991;-71
2022/07/26 00:45:06;;;;;;;;;;;14.10;97.90;;;;;;5090900;28;20277;-73
2022/07/26 00:47:33;;;;;;;;;;;14.10;97.90;;;;;;5070912;28;20290;-73
2022/07/26 00:49:59;;;;;;;;;;;14.20;97.80;;;;;;5085083;28;19908;-73
2022/07/26 00:52:26;;;;;;;;;;;14.20;97.80;;;;;;5092061;28;19908;-73
2022/07/26 00:54:54;;;;;;;;;;;14.20;97.80;;;;;;5092226;28;19962;-72
2022/07/26 00:57:21;;;;;;;;;;;14.20;97.70;;;;;;5091730;28;19904;-73
2022/07/26 00:59:48;;;;;;;;;;;14.20;97.70;;;;;;5091862;28;19912;-73
2022/07/26 01:02:15;;;;;;;;;;;14.30;97.60;;;;;;5090367;28;19969;-73
2022/07/26 01:04:43;;;;;;;;;;;14.30;97.50;;;;;;5090592;28;19908;-73
2022/07/26 01:07:10;;;;;;;;;;;14.30;97.40;;;;;;5090770;28;19998;-72
2022/07/26 01:09:37;;;;;;;;;;;14.30;97.30;;;;;;5090584;28;19963;-72
2022/07/26 01:12:03;;;;;;;;;;;14.30;97.20;;;;;;5092191;28;20374;-72
2022/07/26 01:14:30;;;;;;;;;;;14.30;97.10;;;;;;5091961;28;19909;-72
2022/07/26 01:16:57;;;;;;;;;;;14.30;97.10;;;;;;5091985;28;20349;-72
2022/07/26 01:19:23;;;;;;;;;;;14.40;96.90;;;;;;5091910;28;20382;-72
2022/07/26 01:21:50;;;;;;;;;;;14.40;97.00;;;;;;5090291;28;20263;-72
2022/07/26 01:24:17;;;;;;;;;;;14.40;96.90;;;;;;5070554;28;20271;-72
2022/07/26 01:26:43;;;;;;;;;;;14.50;96.80;;;;;;5087993;28;19912;-73
2022/07/26 01:29:10;;;;;;;;;;;14.50;96.70;;;;;;5090494;28;19973;-73
2022/07/26 01:31:36;;;;;;;;;;;14.50;96.70;;;;;;5091806;28;19908;-73
2022/07/26 01:34:03;;;;;;;;;;;14.50;96.70;;;;;;5090653;28;19908;-73
2022/07/26 01:36:29;;;;;;;;;;;14.60;96.80;;;;;;5091832;28;19908;-73
2022/07/26 01:38:56;;;;;;;;;;;14.70;96.60;;;;;;5091850;28;19920;-73
2022/07/26 01:41:22;;;;;;;;;;;14.70;96.50;;;;;;5091753;28;19945;-73
2022/07/26 01:43:49;;;;;;;;;;;14.70;96.40;;;;;;5091475;28;19934;-73
2022/07/26 01:46:16;;;;;;;;;;;14.70;96.40;;;;;;5094506;28;19962;-73
2022/07/26 01:48:42;;;;;;;;;;;14.70;96.20;;;;;;5093725;28;19915;-73
2022/07/26 01:51:09;;;;;;;;;;;14.80;95.90;;;;;;5094996;28;19919;-73
2022/07/26 01:53:35;;;;;;;;;;;14.80;95.50;;;;;;5095552;28;20247;-73
2022/07/26 01:56:02;;;;;;;;;;;14.80;95.40;;;;;;5093813;28;19947;-72
2022/07/26 01:58:28;;;;;;;;;;;14.80;95.30;;;;;;5094819;28;19938;-72
2022/07/26 02:00:55;;;;;;;;;;;14.90;95.00;;;;;;5094639;28;19915;-73
2022/07/26 02:03:21;;;;;;;;;;;14.90;94.70;;;;;;5094741;28;19975;-72
2022/07/26 02:05:48;;;;;;;;;;;14.90;93.50;;;;;;5094962;28;19934;-72
2022/07/26 02:08:14;;;;;;;;;;;14.90;93.70;;;;;;5094396;28;19916;-72
2022/07/26 02:10:59;;;;;;;;;;;14.90;93.20;;;;;;5094624;28;19915;-73
2022/07/26 02:13:33;;;;;;;;;;;15.00;93.10;;;;;;5093402;28;20011;-71
2022/07/26 02:16:00;;;;;;;;;;;15.00;93.00;;;;;;5094334;28;20385;-73
2022/07/26 02:18:28;;;;;;;;;;;15.10;91.90;;;;;;5094352;28;19916;-73
2022/07/26 02:20:54;;;;;;;;;;;15.20;91.80;;;;;;5093543;28;19912;-74
2022/07/26 02:23:21;;;;;;;;;;;15.20;90.60;;;;;;5094231;28;19909;-73
2022/07/26 02:25:47;;;;;;;;;;;15.30;90.20;;;;;;5094413;28;20273;-73
2022/07/26 02:28:14;;;;;;;;;;;15.20;88.50;;;;;;5075035;28;20255;-73
2022/07/26 02:30:41;;;;;;;;;;;15.30;89.20;;;;;;5094526;28;19930;-74
2022/07/26 02:33:08;;;;;;;;;;;15.30;86.10;;;;;;5094505;28;19908;-71
2022/07/26 02:35:35;;;;;;;;;;;15.30;85.80;;;;;;5094572;28;19971;-73
2022/07/26 02:38:02;;;;;;;;;;;15.30;87.50;;;;;;5094254;28;19920;-74
2022/07/26 02:40:29;;;;;;;;;;;15.30;87.50;;;;;;5094161;28;19908;-73
2022/07/26 02:42:55;;;;;;;;;;;15.40;85.40;;;;;;5094270;28;19943;-73
2022/07/26 02:45:22;;;;;;;;;;;15.40;84.70;;;;;;5092752;28;19923;-74
2022/07/26 02:47:49;;;;;;;;;;;15.40;82.90;;;;;;5093050;28;19908;-74
2022/07/26 02:50:19;;;;;;;;;;;15.40;81.70;;;;;;5075844;28;19908;-74
2022/07/26 02:52:46;;;;;;;;;;;15.40;81.90;;;;;;5092581;28;19908;-74
2022/07/26 02:55:16;;;;;;;;;;;15.50;82.60;;;;;;5092252;28;19915;-73
2022/07/26 02:57:43;;;;;;;;;;;15.50;80.00;;;;;;5092190;28;19915;-71
2022/07/26 03:00:10;;;;;;;;;;;15.60;80.40;;;;;;5093278;28;19919;-73
2022/07/26 03:02:37;;;;;;;;;;;15.60;80.90;;;;;;5093011;28;19931;-74
2022/07/26 03:05:04;;;;;;;;;;;15.70;78.50;;;;;;5093585;28;20007;-73
2022/07/26 03:07:30;;;;;;;;;;;15.70;79.20;;;;;;5093861;28;19908;-73
2022/07/26 03:09:57;;;;;;;;;;;15.70;77.10;;;;;;5093468;28;19915;-73
2022/07/26 03:12:24;;;;;;;;;;;15.70;76.70;;;;;;5094026;28;19919;-73
2022/07/26 03:14:50;;;;;;;;;;;15.70;76.80;;;;;;5093700;28;19909;-74
2022/07/26 03:17:17;;;;;;;;;;;15.70;75.90;;;;;;5093443;28;20433;-73
2022/07/26 03:19:43;;;;;;;;;;;15.70;73.90;;;;;;5093523;28;20293;-73
2022/07/26 03:22:10;;;;;;;;;;;15.70;73.80;;;;;;5093385;28;20357;-72
2022/07/26 03:24:37;;;;;;;;;;;15.70;72.20;;;;;;5093057;28;19955;-74
2022/07/26 03:27:03;;;;;;;;;;;15.60;71.70;;;;;;5093438;28;19912;-73
2022/07/26 03:29:30;;;;;;;;;;;15.60;71.20;;;;;;5093869;28;19938;-70
2022/07/26 03:31:56;;;;;;;;;;;15.60;70.00;;;;;;5093159;28;19912;-72
2022/07/26 03:34:23;;;;;;;;;;;15.60;71.00;;;;;;5093229;28;19907;-72
2022/07/26 03:36:49;;;;;;;;;;;15.70;70.20;;;;;;5092900;28;19915;-72
2022/07/26 03:39:16;;;;;;;;;;;15.70;69.40;;;;;;5092915;28;19916;-72
2022/07/26 03:41:42;;;;;;;;;;;15.80;69.50;;;;;;5093030;28;19912;-71
2022/07/26 03:44:10;;;;;;;;;;;16.00;67.90;;;;;;5093153;28;20334;-72
2022/07/26 03:46:36;;;;;;;;;;;16.00;68.20;;;;;;5093000;28;19912;-72
2022/07/26 03:49:03;;;;;;;;;;;16.10;67.40;;;;;;5092958;28;19953;-73
2022/07/26 03:51:32;;;;;;;;;;;16.10;63.80;;;;;;5092824;28;19908;-72
2022/07/26 03:53:59;;;;;;;;;;;16.10;66.30;;;;;;5092342;28;20366;-72
2022/07/26 03:56:31;;;;;;;;;;;16.20;63.90;;;;;;5092737;28;19912;-73
2022/07/26 03:58:59;;;;;;;;;;;16.20;63.10;;;;;;5091258;28;19936;-74
2022/07/26 04:01:25;;;;;;;;;;;16.20;63.80;;;;;;5091496;28;19912;-74
2022/07/26 04:03:52;;;;;;;;;;;16.00;63.70;;;;;;5092167;28;19920;-74
2022/07/26 04:06:18;;;;;;;;;;;16.00;64.20;;;;;;5092505;28;19911;-73
2022/07/26 04:08:45;;;;;;;;;;;16.00;65.90;;;;;;5091882;28;19933;-73
2022/07/26 04:11:12;;;;;;;;;;;16.00;65.50;;;;;;5092315;28;19914;-73
2022/07/26 04:13:38;;;;;;;;;;;15.80;64.30;;;;;;5092452;28;19919;-73
2022/07/26 04:16:05;;;;;;;;;;;15.80;64.70;;;;;;5092570;28;19915;-73
2022/07/26 04:18:32;;;;;;;;;;;15.70;64.50;;;;;;5070951;28;19927;-73
2022/07/26 04:20:58;;;;;;;;;;;15.80;65.60;;;;;;5084433;28;19958;-73
2022/07/26 04:23:25;;;;;;;;;;;15.80;65.70;;;;;;5092139;28;19912;-73
2022/07/26 04:25:51;;;;;;;;;;;15.80;66.90;;;;;;5092451;28;19995;-72
2022/07/26 04:28:18;;;;;;;;;;;15.70;66.00;;;;;;5092252;28;19912;-73
2022/07/26 04:30:45;;;;;;;;;;;15.70;65.40;;;;;;5092067;28;20843;-72
2022/07/26 04:33:11;;;;;;;;;;;15.70;64.30;;;;;;5074110;28;20282;-72
2022/07/26 04:35:38;;;;;;;;;;;15.70;62.80;;;;;;5092424;28;19961;-73
2022/07/26 04:38:04;;;;;;;;;;;15.70;61.80;;;;;;5092365;28;19927;-73
2022/07/26 04:40:34;;;;;;;;;;;15.60;62.60;;;;;;5092164;28;20372;-72
2022/07/26 04:43:00;;;;;;;;;;;15.60;62.00;;;;;;5092072;28;20407;-73
2022/07/26 04:45:27;;;;;;;;;;;15.50;62.00;;;;;;5091808;28;20267;-72
2022/07/26 04:47:54;;;;;;;;;;;15.50;61.80;;;;;;5092007;28;19916;-74
2022/07/26 04:50:20;;;;;;;;;;;15.40;60.60;;;;;;5090575;28;20255;-72
2022/07/26 04:52:50;;;;;;;;;;;15.30;60.50;;;;;;5092158;28;19912;-72
2022/07/26 04:55:17;;;;;;;;;;;15.30;57.90;;;;;;5091665;28;20378;-72
2022/07/26 04:57:43;;;;;;;;;;;15.20;59.10;;;;;;5092011;28;19912;-72
2022/07/26 05:00:10;;;;;;;;;;;15.20;58.00;;;;;;5092014;28;19958;-73
2022/07/26 05:02:37;;;;;;;;;;;15.10;58.00;;;;;;5091612;28;20289;-73
2022/07/26 05:05:04;;;;;;;;;;;15.00;59.00;;;;;;5092118;28;19962;-73
2022/07/26 05:07:44;;;;;;;;;;;15.00;61.10;;;;;;5092288;28;20369;-73
2022/07/26 05:10:10;;;;;;;;;;;15.00;59.80;;;;;;5091874;28;20293;-73
2022/07/26 05:12:37;;;;;;;;;;;15.00;57.80;;;;;;5091976;28;19944;-73
2022/07/26 05:15:04;;;;;;;;;;;15.00;58.00;;;;;;5092131;28;20316;-72
2022/07/26 05:17:30;;;;;;;;;;;15.00;58.00;;;;;;5092001;28;20350;-73
2022/07/26 05:19:57;;;;;;;;;;;14.90;57.00;;;;;;5094160;28;20264;-73
2022/07/26 05:22:24;;;;;;;;;;;14.80;57.60;;;;;;5095651;28;19981;-73
2022/07/26 05:24:50;;;;;;;;;;;14.80;58.00;;;;;;5095486;28;19963;-72
2022/07/26 05:27:17;;;;;;;;;;;14.80;58.40;;;;;;5088234;28;19920;-67
2022/07/26 05:29:43;;;;;;;;;;;14.80;58.10;;;;;;5095336;28;19916;-67
2022/07/26 05:32:10;;;;;;;;;;;14.80;56.70;;;;;;5094033;28;20341;-67
2022/07/26 05:34:36;;;;;;;;;;;14.80;57.50;;;;;;5095397;28;20277;-67
2022/07/26 05:37:03;;;;;;;;;;;14.80;58.50;;;;;;5083630;28;20327;-66
2022/07/26 05:39:29;;;;;;;;;;;14.80;58.30;;;;;;5083457;28;19926;-66
2022/07/26 05:41:56;;;;;;;;;;;14.80;57.70;;;;;;5092614;28;19912;-67
2022/07/26 05:44:23;;;;;;;;;;;14.90;57.50;;;;;;5095250;28;19950;-66
2022/07/26 05:46:50;;;;;;;;;;;14.80;58.00;;;;;;5085012;28;19913;-67
2022/07/26 05:49:16;;;;;;;;;;;14.80;57.30;;;;;;5092416;28;19938;-67
2022/07/26 05:51:43;;;;;;;;;;;14.80;57.00;;;;;;5082126;28;20259;-66
2022/07/26 05:54:09;;;;;;;;;;;14.70;57.60;;;;;;5082232;28;20369;-66
2022/07/26 05:56:36;;;;;;;;;;;14.70;57.50;;;;;;5086251;28;19912;-67
2022/07/26 05:59:02;;;;;;;;;;;14.60;57.00;;;;;;5092314;28;19924;-67
2022/07/26 06:01:31;;;;;;;;;;;14.60;57.00;;;;;;5086778;28;19912;-68
2022/07/26 06:03:58;;;;;;;;;;;14.50;57.50;;;;;;5089997;28;19924;-66
2022/07/26 06:06:24;;;;;;;;;;;14.50;57.10;;;;;;5099023;28;19937;-67
2022/07/26 06:08:51;;;;;;;;;;;14.50;56.90;;;;;;5097721;28;20380;-67
2022/07/26 06:11:17;;;;;;;;;;;14.50;57.60;;;;;;5087579;28;20347;-66
2022/07/26 06:13:44;;;;;;;;;;;14.50;57.60;;;;;;5092529;28;19919;-66
2022/07/26 06:16:11;;;;;;;;;;;14.40;57.50;;;;;;5087480;28;19951;-67
2022/07/26 06:18:37;;;;;;;;;;;14.40;56.70;;;;;;5091569;28;19963;-67
2022/07/26 06:21:04;;;;;;;;;;;14.30;57.20;;;;;;5086167;28;19912;-66
2022/07/26 06:23:30;;;;;;;;;;;14.30;56.20;;;;;;5090220;28;19912;-66
2022/07/26 06:25:57;;;;;;;;;;;14.30;56.50;;;;;;5097887;28;19916;-67
2022/07/26 06:28:23;;;;;;;;;;;14.20;57.30;;;;;;5093924;28;20010;-66
2022/07/26 06:30:50;;;;;;;;;;;14.20;57.40;;;;;;5084140;28;19912;-65
2022/07/26 06:33:16;;;;;;;;;;;14.20;57.40;;;;;;5091285;28;19916;-66
2022/07/26 06:35:43;;;;;;;;;;;14.10;56.50;;;;;;5091223;28;19920;-66
2022/07/26 06:38:09;;;;;;;;;;;14.10;57.20;;;;;;5082665;28;19924;-66
2022/07/26 06:40:36;;;;;;;;;;;14.10;56.80;;;;;;5088349;28;19946;-66
2022/07/26 06:43:02;;;;;;;;;;;14.00;58.10;;;;;;5089037;28;19923;-66
2022/07/26 06:45:29;;;;;;;;;;;14.00;57.50;;;;;;5085443;28;19916;-67
2022/07/26 06:47:56;;;;;;;;;;;13.90;58.20;;;;;;5090791;28;19965;-67
2022/07/26 06:50:22;;;;;;;;;;;13.80;58.80;;;;;;5090744;28;20007;-67
2022/07/26 06:52:49;;;;;;;;;;;13.80;58.10;;;;;;5081564;28;19969;-67
2022/07/26 06:55:16;;;;;;;;;;;13.80;59.40;;;;;;5084920;28;19916;-66
2022/07/26 06:57:42;;;;;;;;;;;13.70;58.90;;;;;;5090129;28;19931;-67
2022/07/26 07:00:09;;;;;;;;;;;13.70;58.00;;;;;;5088142;28;20382;-65
2022/07/26 07:02:36;;;;;;;;;;;13.70;58.20;;;;;;5076936;28;19982;-64
2022/07/26 07:05:02;;;;;;;;;;;13.60;57.80;;;;;;5070979;28;20323;-64
2022/07/26 07:07:29;;;;;;;;;;;13.60;58.40;;;;;;5070303;28;19920;-66
2022/07/26 07:09:55;;;;;;;;;;;13.50;59.00;;;;;;5069871;28;19943;-66
2022/07/26 07:12:22;;;;;;;;;;;13.50;58.90;;;;;;5070053;28;19939;-66
2022/07/26 07:14:49;;;;;;;;;;;13.40;58.60;;;;;;5070217;28;20433;-67
2022/07/26 07:17:17;;;;;;;;;;;13.40;59.40;;;;;;5070744;28;19908;-67
2022/07/26 07:19:44;;;;;;;;;;;13.30;59.30;;;;;;5070084;28;19940;-67
2022/07/26 07:22:11;;;;;;;;;;;13.20;59.90;;;;;;5067851;28;19916;-66
2022/07/26 07:24:37;;;;;;;;;;;13.20;58.90;;;;;;5069717;28;19916;-66
2022/07/26 07:27:04;;;;;;;;;;;13.20;60.20;;;;;;5069292;28;19916;-66
2022/07/26 07:29:31;;;;;;;;;;;13.20;59.60;;;;;;5069943;28;19917;-66
2022/07/26 07:31:57;;;;;;;;;;;13.20;60.50;;;;;;5069103;28;20015;-66
2022/07/26 07:34:24;;;;;;;;;;;13.20;60.10;;;;;;5070088;28;20305;-66
2022/07/26 07:36:50;;;;;;;;;;;13.20;60.00;;;;;;5069665;28;19916;-66
2022/07/26 07:39:17;;;;;;;;;;;13.10;60.60;;;;;;5069535;28;19928;-66
2022/07/26 07:41:44;;;;;;;;;;;13.10;60.70;;;;;;5069442;28;20412;-68
2022/07/26 07:44:11;;;;;;;;;;;13.00;59.60;;;;;;5052078;28;20362;-67
2022/07/26 07:46:37;;;;;;;;;;;13.00;59.80;;;;;;5069431;28;19963;-66
2022/07/26 07:49:04;;;;;;;;;;;13.00;60.50;;;;;;5068607;28;19943;-66
2022/07/26 07:51:31;;;;;;;;;;;13.00;59.60;;;;;;5056218;28;19952;-66
2022/07/26 07:53:57;;;;;;;;;;;13.00;59.70;;;;;;5065698;28;19942;-66
2022/07/26 07:56:24;;;;;;;;;;;13.00;59.90;;;;;;5069184;28;19924;-66
2022/07/26 07:58:51;;;;;;;;;;;13.00;60.50;;;;;;5068663;28;19955;-66
2022/07/26 08:01:17;;;;;;;;;;;13.00;60.60;;;;;;5068580;28;19917;-66
2022/07/26 08:03:44;;;;;;;;;;;13.00;61.40;;;;;;5084796;28;19931;-66
2022/07/26 08:06:10;;;;;;;;;;;12.90;60.60;;;;;;5086496;28;19924;-65
2022/07/26 08:08:37;;;;;;;;;;;13.00;60.40;;;;;;5081770;28;19916;-66
2022/07/26 08:11:04;;;;;;;;;;;12.90;59.90;;;;;;5104799;28;19908;-66
2022/07/26 08:13:30;;;;;;;;;;;12.90;60.50;;;;;;5079459;28;19916;-66
2022/07/26 08:15:57;;;;;;;;;;;12.80;59.60;;;;;;5090640;28;19962;-66
2022/07/26 08:18:23;;;;;;;;;;;12.80;60.90;;;;;;5088788;28;19920;-65
2022/07/26 08:20:50;;;;;;;;;;;12.80;60.40;;;;;;5086378;28;19916;-66
2022/07/26 08:23:17;;;;;;;;;;;12.80;61.30;;;;;;5078887;28;19916;-66
2022/07/26 08:25:44;;;;;;;;;;;12.70;59.70;;;;;;5088122;28;20286;-65
2022/07/26 08:28:10;;;;;;;;;;;12.70;60.20;;;;;;5086146;28;19924;-67
2022/07/26 08:30:37;;;;;;;;;;;12.70;59.70;;;;;;5082420;28;19963;-67
2022/07/26 08:33:03;;;;;;;;;;;12.70;59.30;;;;;;5081055;28;19912;-66
2022/07/26 10:54:27;;;;;;;;;;;12.60;61.90;;;;;;5067512;28;19970;-68
2022/07/26 10:56:54;;;;;;;;;;;12.60;61.50;;;;;;5070708;28;19928;-69
2022/07/26 10:59:33;;;;;;;;;;;12.60;62.40;;;;;;5070694;28;19920;-68
2022/07/26 11:01:59;;;;;;;;;;;12.60;62.50;;;;;;5072550;28;19970;-68
2022/07/26 11:04:26;;;;;;;;;;;12.50;62.50;;;;;;5070633;28;20019;-66
2022/07/26 11:06:53;;;;;;;;;;;12.50;62.50;;;;;;5066022;28;19920;-67
2022/07/26 11:09:19;;;;;;;;;;;12.50;62.50;;;;;;5069372;28;19912;-67
2022/07/26 11:11:46;;;;;;;;;;;12.50;62.80;;;;;;5070782;28;19908;-65
2022/07/26 11:14:13;;;;;;;;;;;12.40;62.00;;;;;;5070405;28;19913;-65
2022/07/26 11:16:44;;;;;;;;;;;12.40;62.50;;;;;;5067464;28;20347;-66
2022/07/26 11:19:17;;;;;;;;;;;12.40;62.90;;;;;;5060908;28;19960;-66
2022/07/26 11:21:44;;;;;;;;;;;12.40;63.00;;;;;;5067908;28;19953;-66
2022/07/26 11:24:11;;;;;;;;;;;12.40;63.00;;;;;;5070494;28;20508;-66
2022/07/26 11:26:43;;;;;;;;;;;12.40;63.20;;;;;;5068905;28;19971;-66
2022/07/26 11:29:10;;;;;;;;;;;12.40;63.80;;;;;;5060183;28;19913;-65
2022/07/26 11:31:40;;;;;;;;;;;12.30;63.20;;;;;;5070385;28;19913;-65
2022/07/26 11:34:08;;;;;;;;;;;12.30;62.90;;;;;;5070671;28;19955;-64
2022/07/26 11:36:41;;;;;;;;;;;12.30;63.00;;;;;;5069275;28;19924;-65
2022/07/26 11:39:08;;;;;;;;;;;12.30;63.30;;;;;;5057497;28;20023;-64
2022/07/26 11:41:35;;;;;;;;;;;12.20;63.50;;;;;;5069993;28;19908;-65
2022/07/26 11:44:02;;;;;;;;;;;12.30;63.10;;;;;;5070388;28;19915;-64
2022/07/26 11:46:33;;;;;;;;;;;12.20;64.20;;;;;;5070005;28;19916;-65
2022/07/26 11:48:59;;;;;;;;;;;12.20;63.50;;;;;;5069757;28;19909;-67
2022/07/26 11:51:26;;;;;;;;;;;12.20;64.00;;;;;;5070222;28;19908;-67
2022/07/26 11:53:58;;;;;;;;;;;12.20;64.40;;;;;;5069915;28;19932;-69
2022/07/26 11:56:25;;;;;;;;;;;12.20;64.20;;;;;;5069681;28;19927;-67
2022/07/26 11:58:53;;;;;;;;;;;12.20;64.30;;;;;;5069721;28;19920;-68
2022/07/26 12:01:19;;;;;;;;;;;12.20;64.20;;;;;;5068144;28;20338;-66
2022/07/26 12:03:47;;;;;;;;;;;12.20;64.00;;;;;;5055142;28;19913;-68
2022/07/26 12:06:15;;;;;;;;;;;12.10;63.40;;;;;;5069848;28;20497;-67
2022/07/26 12:08:55;;;;;;;;;;;12.10;64.10;;;;;;5068526;28;19921;-67
2022/07/26 12:11:22;;;;;;;;;;;12.10;63.60;;;;;;5059785;28;20378;-68
2022/07/26 12:13:51;;;;;;;;;;;12.10;62.70;;;;;;5064633;28;19917;-66
2022/07/26 12:16:40;;;;;;;;;;;12.10;64.00;;;;;;5061194;28;19916;-66
2022/07/26 12:19:11;;;;;;;;;;;12.10;63.50;;;;;;5059814;28;19944;-66
2022/07/26 12:21:47;;;;;;;;;;;12.10;64.30;;;;;;5040056;28;20415;-68
2022/07/26 12:24:33;;;;;;;;;;;12.10;63.20;;;;;;5060012;28;19950;-67
2022/07/26 12:27:10;;;;;;;;;;;12.10;63.20;;;;;;5060816;28;19923;-66
2022/07/26 12:29:37;;;;;;;;;;;12.00;63.10;;;;;;5060900;28;20333;-65
2022/07/26 12:32:08;;;;;;;;;;;12.10;63.30;;;;;;5063978;28;19951;-69
2022/07/26 12:34:35;;;;;;;;;;;12.00;63.10;;;;;;5047384;28;19917;-67
2022/07/26 12:37:08;;;;;;;;;;;12.10;62.90;;;;;;5060741;28;19959;-68
2022/07/26 12:39:34;;;;;;;;;;;12.00;63.00;;;;;;5062370;28;19928;-67
2022/07/26 12:42:21;;;;;;;;;;;12.00;63.60;;;;;;5043125;28;19959;-67
2022/07/26 12:44:48;;;;;;;;;;;12.00;63.10;;;;;;5064452;28;19916;-66
2022/07/26 12:47:14;;;;;;;;;;;12.00;63.00;;;;;;5071918;28;19919;-68
2022/07/26 12:49:41;;;;;;;;;;;11.90;63.30;;;;;;5065537;28;19935;-68
2022/07/26 12:52:07;;;;;;;;;;;11.90;63.40;;;;;;5066594;28;19923;-67
2022/07/26 12:54:34;;;;;;;;;;;11.90;63.40;;;;;;5065667;28;20150;-67
2022/07/26 12:57:00;;;;;;;;;;;11.90;63.10;;;;;;5066531;28;19916;-64
2022/07/26 12:59:27;;;;;;;;;;;11.90;63.70;;;;;;5063222;28;19987;-65
2022/07/26 13:01:53;;;;;;;;;;;11.90;64.10;;;;;;5066193;28;19999;-65
2022/07/26 13:04:20;;;;;;;;;;;11.90;64.10;;;;;;5065156;28;20025;-65
2022/07/26 13:06:47;;;;;;;;;;;11.80;64.20;;;;;;5065970;28;19923;-66
2022/07/26 13:09:13;;;;;;;;;;;11.80;64.20;;;;;;5055769;28;19983;-66
2022/07/26 13:11:40;;;;;;;;;;;11.80;63.70;;;;;;5046973;28;20416;-66
2022/07/26 13:14:06;;;;;;;;;;;11.80;63.90;;;;;;5065153;28;20588;-66
2022/07/26 13:16:33;;;;;;;;;;;11.80;64.20;;;;;;5066333;28;20373;-66
2022/07/26 13:18:59;;;;;;;;;;;11.80;63.70;;;;;;5065172;28;20428;-66
2022/07/26 13:21:26;;;;;;;;;;;11.80;63.80;;;;;;5063862;28;19994;-66
2022/07/26 13:23:52;;;;;;;;;;;11.70;63.70;;;;;;5066908;28;19912;-66
2022/07/26 13:26:19;;;;;;;;;;;11.70;64.10;;;;;;5068376;28;19912;-66
2022/07/26 13:28:46;;;;;;;;;;;11.70;63.30;;;;;;5057232;28;19916;-66
2022/07/26 13:31:12;;;;;;;;;;;11.70;64.30;;;;;;5066163;28;20552;-66
2022/07/26 13:33:39;;;;;;;;;;;11.70;64.40;;;;;;5063786;28;19988;-66
2022/07/26 13:36:05;;;;;;;;;;;11.70;64.50;;;;;;5066318;28;19916;-67
2022/07/26 13:38:32;;;;;;;;;;;11.70;64.20;;;;;;5065243;28;19994;-67
2022/07/26 13:41:02;;;;;;;;;;;11.70;64.30;;;;;;5070795;28;19912;-67
2022/07/26 13:43:32;;;;;;;;;;;11.70;65.00;;;;;;5070278;28;19966;-67
2022/07/26 13:45:58;;;;;;;;;;;11.70;64.50;;;;;;5070323;28;19913;-67
2022/07/26 13:48:25;;;;;;;;;;;11.70;64.90;;;;;;5058487;28;19928;-67
2022/07/26 13:50:52;;;;;;;;;;;11.70;65.10;;;;;;5062843;28;20022;-66
2022/07/26 13:53:19;;;;;;;;;;;11.60;65.50;;;;;;5072884;28;20003;-66
2022/07/26 13:55:46;;;;;;;;;;;11.70;65.10;;;;;;5065327;28;19926;-65
2022/07/26 13:58:12;;;;;;;;;;;11.70;65.30;;;;;;5073401;28;20400;-65
2022/07/26 14:00:39;;;;;;;;;;;11.60;65.80;;;;;;5072716;28;19924;-66
2022/07/26 14:03:06;;;;;;;;;;;11.70;65.30;;;;;;5070795;28;19912;-66
2022/07/26 14:05:32;;;;;;;;;;;11.60;65.60;;;;;;5072329;28;20324;-66
2022/07/26 14:07:59;;;;;;;;;;;11.60;65.60;;;;;;5061203;28;20370;-66
2022/07/26 14:10:25;;;;;;;;;;;11.60;65.30;;;;;;5072575;28;19950;-66
2022/07/26 14:12:52;;;;;;;;;;;11.70;65.20;;;;;;5072271;28;19913;-68
2022/07/26 14:15:18;;;;;;;;;;;11.60;65.70;;;;;;5071337;28;19916;-66
2022/07/26 14:17:46;;;;;;;;;;;11.60;65.10;;;;;;5070523;28;19909;-66
2022/07/26 14:20:12;;;;;;;;;;;11.60;65.40;;;;;;5072232;28;20278;-66
2022/07/26 14:22:39;;;;;;;;;;;11.60;65.40;;;;;;5080411;28;19917;-66
2022/07/26 14:25:06;;;;;;;;;;;11.60;64.80;;;;;;5074073;28;19962;-67
2022/07/26 14:27:32;;;;;;;;;;;11.60;65.00;;;;;;5073570;28;19909;-66
2022/07/26 14:29:59;;;;;;;;;;;11.60;64.90;;;;;;5068873;28;19919;-66
2022/07/26 14:32:25;;;;;;;;;;;11.60;65.20;;;;;;5063522;28;19920;-66
2022/07/26 14:34:52;;;;;;;;;;;11.60;65.20;;;;;;5071504;28;20395;-66
2022/07/26 14:37:18;;;;;;;;;;;11.60;65.80;;;;;;5073265;28;19924;-68
2022/07/26 14:39:45;;;;;;;;;;;11.60;65.60;;;;;;5073264;28;20042;-68
2022/07/26 14:42:11;;;;;;;;;;;11.60;65.40;;;;;;5071933;28;20289;-67
2022/07/26 14:44:39;;;;;;;;;;;11.60;65.40;;;;;;5072565;28;20293;-66
2022/07/26 14:47:07;;;;;;;;;;;11.60;65.70;;;;;;5059092;28;19908;-66
2022/07/26 14:49:34;;;;;;;;;;;11.60;65.20;;;;;;5071292;28;19928;-66
2022/07/26 14:52:00;;;;;;;;;;;11.50;65.40;;;;;;5069371;28;19948;-66
2022/07/26 14:54:27;;;;;;;;;;;11.50;65.80;;;;;;5031871;28;22008;-66
2022/07/26 14:56:53;;;;;;;;;;;11.50;66.30;;;;;;5073260;28;20325;-66
2022/07/26 14:59:20;;;;;;;;;;;11.50;65.40;;;;;;5072625;28;20408;-68
2022/07/26 15:01:46;;;;;;;;;;;11.50;65.50;;;;;;5072014;28;20329;-66
2022/07/26 15:04:13;;;;;;;;;;;11.50;65.20;;;;;;5065939;28;19959;-67
2022/07/26 15:06:39;;;;;;;;;;;11.50;64.90;;;;;;5073238;28;19922;-68
2022/07/26 15:09:06;;;;;;;;;;;11.50;65.30;;;;;;5069976;28;19963;-68
2022/07/26 15:11:32;;;;;;;;;;;11.50;64.60;;;;;;5071650;28;19915;-68
2022/07/26 15:13:59;;;;;;;;;;;11.40;64.70;;;;;;5051266;28;19913;-68
2022/07/26 15:16:26;;;;;;;;;;;11.50;65.00;;;;;;5066838;28;19966;-68
2022/07/26 15:18:52;;;;;;;;;;;11.50;64.70;;;;;;5067962;28;20298;-68
2022/07/26 15:21:19;;;;;;;;;;;11.50;65.20;;;;;;5067990;28;20386;-68
2022/07/26 15:23:45;;;;;;;;;;;11.50;64.70;;;;;;5068274;28;19962;-68
2022/07/26 15:26:12;;;;;;;;;;;11.40;65.10;;;;;;5069461;28;19913;-67
2022/07/26 15:28:39;;;;;;;;;;;11.50;65.30;;;;;;5069608;28;20000;-68
2022/07/26 15:31:05;;;;;;;;;;;11.40;65.20;;;;;;5069588;28;19913;-68
2022/07/26 15:33:32;;;;;;;;;;;11.50;64.50;;;;;;5069015;28;19912;-68
2022/07/26 15:35:58;;;;;;;;;;;11.50;64.80;;;;;;5073015;28;19908;-67
2022/07/26 15:38:25;;;;;;;;;;;11.40;64.90;;;;;;5072853;28;19917;-67
2022/07/26 15:40:51;;;;;;;;;;;11.50;65.40;;;;;;5068172;28;19913;-68
2022/07/26 15:43:21;;;;;;;;;;;11.40;65.00;;;;;;5069408;28;20007;-68
2022/07/26 15:45:48;;;;;;;;;;;11.40;65.60;;;;;;5057261;28;19921;-68
2022/07/26 15:48:14;;;;;;;;;;;11.40;65.90;;;;;;5070678;28;19924;-68
2022/07/26 15:50:41;;;;;;;;;;;11.40;65.40;;;;;;5065947;28;19913;-68
2022/07/26 15:53:08;;;;;;;;;;;11.40;65.70;;;;;;5063543;28;19921;-68
2022/07/26 15:55:35;;;;;;;;;;;11.40;65.70;;;;;;5067025;28;19946;-68
2022/07/26 15:58:01;;;;;;;;;;;11.30;65.90;;;;;;5071798;28;19947;-68
2022/07/26 16:00:28;;;;;;;;;;;11.30;66.20;;;;;;5069394;28;19912;-67
2022/07/26 16:02:54;;;;;;;;;;;11.20;66.00;;;;;;5067685;28;19962;-68
2022/07/26 16:05:21;;;;;;;;;;;11.30;66.20;;;;;;5065396;28;20294;-68
2022/07/26 16:07:47;;;;;;;;;;;11.20;66.40;;;;;;5068912;28;19909;-68
2022/07/26 16:10:15;;;;;;;;;;;11.20;66.50;;;;;;5066257;28;20325;-68
2022/07/26 16:12:41;;;;;;;;;;;11.20;66.70;;;;;;5071931;28;19958;-68
2022/07/26 16:15:08;;;;;;;;;;;11.20;66.90;;;;;;5064682;28;19999;-68
2022/07/26 16:17:35;;;;;;;;;;;11.20;66.20;;;;;;5065876;28;19912;-68
2022/07/26 16:20:02;;;;;;;;;;;11.20;66.30;;;;;;5065669;28;19959;-68
2022/07/26 16:22:30;;;;;;;;;;;11.20;66.60;;;;;;5072068;28;19908;-68
2022/07/26 16:24:56;;;;;;;;;;;11.20;66.80;;;;;;5063898;28;20354;-68
2022/07/26 16:27:23;;;;;;;;;;;11.20;67.50;;;;;;5070035;28;20266;-68
2022/07/26 16:29:50;;;;;;;;;;;11.20;66.80;;;;;;5068567;28;20387;-68
2022/07/26 16:32:16;;;;;;;;;;;11.10;67.00;;;;;;5069834;28;20294;-68
2022/07/26 16:34:43;;;;;;;;;;;11.20;67.20;;;;;;5048284;28;20348;-68